sensor_id;sensor_type;location;lat;lon;timestamp;pressure;altitude;pressure_sealevel;temperature;humidity
63343;BME280;49465;57.664;39.686;2023-03-24T00:01:24;98948.75;;;8.56;56.39
63343;BME280;49465;57.664;39.686;2023-03-24T00:03:53;98938.44;;;8.55;56.32
63343;BME280;49465;57.664;39.686;2023-03-24T00:06:20;98937.69;;;8.52;56.37
63343;BME280;49465;57.664;39.686;2023-03-24T00:08:48;98936.75;;;8.54;56.83
63343;BME280;49465;57.664;39.686;2023-03-24T00:11:14;98936.97;;;8.50;56.90
63343;BME280;49465;57.664;39.686;2023-03-24T00:13:43;98929.28;;;8.49;56.59
63343;BME280;49465;57.664;39.686;2023-03-24T00:16:15;98928.09;;;8.53;57.25
63343;BME280;49465;57.664;39.686;2023-03-24T00:18:42;98925.00;;;8.48;56.92
63343;BME280;49465;57.664;39.686;2023-03-24T00:21:11;98922.28;;;8.61;57.95
63343;BME280;49465;57.664;39.686;2023-03-24T00:23:38;98906.97;;;8.45;56.53
63343;BME280;49465;57.664;39.686;2023-03-24T00:26:12;98911.47;;;8.54;57.33
63343;BME280;49465;57.664;39.686;2023-03-24T00:28:45;98898.84;;;9.58;53.75
63343;BME280;49465;57.664;39.686;2023-03-24T00:31:23;98892.50;;;8.96;56.07
63343;BME280;49465;57.664;39.686;2023-03-24T00:33:53;98888.31;;;8.49;56.74
63343;BME280;49465;57.664;39.686;2023-03-24T00:36:25;98881.03;;;8.64;57.10
63343;BME280;49465;57.664;39.686;2023-03-24T00:38:55;98879.06;;;8.45;57.19
63343;BME280;49465;57.664;39.686;2023-03-24T00:41:26;98879.88;;;8.57;57.53
63343;BME280;49465;57.664;39.686;2023-03-24T00:43:59;98867.84;;;8.66;57.32
63343;BME280;49465;57.664;39.686;2023-03-24T00:46:33;98866.22;;;8.54;57.93
63343;BME280;49465;57.664;39.686;2023-03-24T00:49:05;98863.53;;;9.52;54.37
63343;BME280;49465;57.664;39.686;2023-03-24T00:51:37;98869.88;;;8.74;56.39
63343;BME280;49465;57.664;39.686;2023-03-24T00:54:09;98864.22;;;8.46;57.25
63343;BME280;49465;57.664;39.686;2023-03-24T00:56:39;98855.66;;;8.55;57.59
63343;BME280;49465;57.664;39.686;2023-03-24T00:59:05;98858.00;;;8.36;57.11
63343;BME280;49465;57.664;39.686;2023-03-24T01:01:37;98848.31;;;8.49;57.56
63343;BME280;49465;57.664;39.686;2023-03-24T01:04:08;98844.13;;;8.46;57.59
63343;BME280;49465;57.664;39.686;2023-03-24T01:06:40;98840.91;;;8.54;58.15
63343;BME280;49465;57.664;39.686;2023-03-24T01:09:09;98839.16;;;8.43;58.06
63343;BME280;49465;57.664;39.686;2023-03-24T01:11:42;98837.25;;;8.45;57.83
63343;BME280;49465;57.664;39.686;2023-03-24T01:14:09;98834.75;;;8.32;57.41
63343;BME280;49465;57.664;39.686;2023-03-24T01:16:42;98827.84;;;8.54;58.26
63343;BME280;49465;57.664;39.686;2023-03-24T01:19:11;98826.22;;;8.42;57.48
63343;BME280;49465;57.664;39.686;2023-03-24T01:21:43;98822.78;;;8.41;57.48
63343;BME280;49465;57.664;39.686;2023-03-24T01:24:16;98810.53;;;8.42;58.01
63343;BME280;49465;57.664;39.686;2023-03-24T01:26:46;98812.41;;;8.40;58.32
63343;BME280;49465;57.664;39.686;2023-03-24T01:29:18;98811.59;;;8.39;57.82
63343;BME280;49465;57.664;39.686;2023-03-24T01:31:45;98813.63;;;8.24;57.13
63343;BME280;49465;57.664;39.686;2023-03-24T01:34:14;98814.59;;;8.23;57.73
63343;BME280;49465;57.664;39.686;2023-03-24T01:36:45;98814.31;;;8.38;58.18
63343;BME280;49465;57.664;39.686;2023-03-24T01:39:21;98809.38;;;8.23;57.39
63343;BME280;49465;57.664;39.686;2023-03-24T01:41:50;98806.50;;;8.38;58.08
63343;BME280;49465;57.664;39.686;2023-03-24T01:44:35;98802.19;;;8.70;58.12
63343;BME280;49465;57.664;39.686;2023-03-24T01:47:05;98801.28;;;8.26;57.72
63343;BME280;49465;57.664;39.686;2023-03-24T01:49:44;98802.47;;;8.45;58.48
63343;BME280;49465;57.664;39.686;2023-03-24T01:52:38;98797.16;;;8.79;56.22
63343;BME280;49465;57.664;39.686;2023-03-24T01:55:12;98790.13;;;8.36;57.89
63343;BME280;49465;57.664;39.686;2023-03-24T01:57:52;98790.72;;;8.39;57.96
63343;BME280;49465;57.664;39.686;2023-03-24T02:00:21;98787.75;;;8.21;57.77
63343;BME280;49465;57.664;39.686;2023-03-24T02:02:56;98791.44;;;8.41;57.72
63343;BME280;49465;57.664;39.686;2023-03-24T02:05:36;98798.06;;;8.57;57.31
63343;BME280;49465;57.664;39.686;2023-03-24T02:10:57;98789.63;;;8.19;57.16
63343;BME280;49465;57.664;39.686;2023-03-24T02:13:27;98790.50;;;8.20;56.34
63343;BME280;49465;57.664;39.686;2023-03-24T02:16:23;98786.53;;;8.59;56.25
63343;BME280;49465;57.664;39.686;2023-03-24T02:24:55;98774.19;;;8.50;56.91
63343;BME280;49465;57.664;39.686;2023-03-24T02:27:49;98780.34;;;8.60;57.22
63343;BME280;49465;57.664;39.686;2023-03-24T02:51:35;98771.97;;;8.78;55.45
63343;BME280;49465;57.664;39.686;2023-03-24T02:54:28;98759.59;;;8.59;57.44
63343;BME280;49465;57.664;39.686;2023-03-24T02:57:13;98751.28;;;8.54;57.18
63343;BME280;49465;57.664;39.686;2023-03-24T02:59:53;98756.50;;;8.31;57.56
63343;BME280;49465;57.664;39.686;2023-03-24T03:02:44;98752.53;;;8.70;57.89
63343;BME280;49465;57.664;39.686;2023-03-24T03:05:34;98742.09;;;8.70;56.86
63343;BME280;49465;57.664;39.686;2023-03-24T03:08:06;98754.28;;;8.26;57.81
63343;BME280;49465;57.664;39.686;2023-03-24T03:10:41;98741.69;;;8.31;58.41
63343;BME280;49465;57.664;39.686;2023-03-24T03:13:16;98744.19;;;8.33;58.09
63343;BME280;49465;57.664;39.686;2023-03-24T03:15:48;98755.25;;;8.25;58.34
63343;BME280;49465;57.664;39.686;2023-03-24T03:20:58;98753.06;;;8.30;57.82
63343;BME280;49465;57.664;39.686;2023-03-24T03:23:40;98747.72;;;8.55;57.13
63343;BME280;49465;57.664;39.686;2023-03-24T03:26:18;98744.66;;;8.49;57.06
63343;BME280;49465;57.664;39.686;2023-03-24T03:28:54;98750.47;;;8.30;58.49
63343;BME280;49465;57.664;39.686;2023-03-24T03:31:35;98744.50;;;8.40;58.76
63343;BME280;49465;57.664;39.686;2023-03-24T03:34:28;98749.16;;;8.47;58.54
63343;BME280;49465;57.664;39.686;2023-03-24T03:37:06;98742.13;;;8.37;59.01
63343;BME280;49465;57.664;39.686;2023-03-24T03:39:38;98737.66;;;8.27;58.99
63343;BME280;49465;57.664;39.686;2023-03-24T03:42:09;98743.72;;;8.28;59.11
63343;BME280;49465;57.664;39.686;2023-03-24T03:44:40;98740.28;;;8.27;58.55
63343;BME280;49465;57.664;39.686;2023-03-24T03:47:13;98739.47;;;8.16;58.43
63343;BME280;49465;57.664;39.686;2023-03-24T03:49:41;98746.44;;;8.15;58.24
63343;BME280;49465;57.664;39.686;2023-03-24T03:52:08;98748.00;;;8.18;58.11
63343;BME280;49465;57.664;39.686;2023-03-24T03:54:35;98746.00;;;8.21;58.92
63343;BME280;49465;57.664;39.686;2023-03-24T03:57:03;98749.06;;;8.15;58.46
63343;BME280;49465;57.664;39.686;2023-03-24T03:59:37;98742.63;;;8.42;58.71
63343;BME280;49465;57.664;39.686;2023-03-24T04:02:37;98745.84;;;8.78;57.29
63343;BME280;49465;57.664;39.686;2023-03-24T04:10:14;98745.41;;;8.18;58.37
63343;BME280;49465;57.664;39.686;2023-03-24T04:13:57;98743.94;;;8.80;56.77
63343;BME280;49465;57.664;39.686;2023-03-24T04:16:06;98748.22;;;8.26;57.94
63343;BME280;49465;57.664;39.686;2023-03-24T04:21:50;98746.81;;;8.22;58.48
63343;BME280;49465;57.664;39.686;2023-03-24T04:24:36;98746.88;;;8.54;58.97
63343;BME280;49465;57.664;39.686;2023-03-24T04:30:27;98743.53;;;8.63;57.27
63343;BME280;49465;57.664;39.686;2023-03-24T04:35:37;98740.91;;;8.63;58.70
63343;BME280;49465;57.664;39.686;2023-03-24T04:38:27;98740.19;;;8.73;57.25
63343;BME280;49465;57.664;39.686;2023-03-24T04:40:56;98736.59;;;8.30;58.91
63343;BME280;49465;57.664;39.686;2023-03-24T04:43:27;98744.19;;;8.33;59.12
63343;BME280;49465;57.664;39.686;2023-03-24T04:46:03;98744.53;;;8.28;58.73
63343;BME280;49465;57.664;39.686;2023-03-24T04:48:33;98749.84;;;8.38;59.33
63343;BME280;49465;57.664;39.686;2023-03-24T04:51:03;98745.34;;;8.29;58.96
63343;BME280;49465;57.664;39.686;2023-03-24T04:53:31;98742.03;;;8.27;58.77
63343;BME280;49465;57.664;39.686;2023-03-24T04:58:34;98750.56;;;8.40;59.23
63343;BME280;49465;57.664;39.686;2023-03-24T05:01:01;98747.84;;;8.30;58.64
63343;BME280;49465;57.664;39.686;2023-03-24T05:03:28;98734.78;;;8.30;58.93
63343;BME280;49465;57.664;39.686;2023-03-24T05:05:54;98739.09;;;8.31;59.05
63343;BME280;49465;57.664;39.686;2023-03-24T05:08:24;98742.41;;;8.34;59.21
63343;BME280;49465;57.664;39.686;2023-03-24T05:10:53;98744.19;;;8.33;59.11
63343;BME280;49465;57.664;39.686;2023-03-24T05:13:20;98739.78;;;8.34;58.86
63343;BME280;49465;57.664;39.686;2023-03-24T05:15:54;98752.59;;;8.48;59.15
63343;BME280;49465;57.664;39.686;2023-03-24T05:18:30;98745.44;;;8.39;58.63
63343;BME280;49465;57.664;39.686;2023-03-24T05:20:56;98746.78;;;8.44;58.25
63343;BME280;49465;57.664;39.686;2023-03-24T05:23:23;98745.25;;;8.42;59.27
63343;BME280;49465;57.664;39.686;2023-03-24T05:26:01;98746.94;;;8.75;59.84
63343;BME280;49465;57.664;39.686;2023-03-24T05:28:28;98747.63;;;8.45;59.63
63343;BME280;49465;57.664;39.686;2023-03-24T05:30:54;98743.34;;;8.44;59.90
63343;BME280;49465;57.664;39.686;2023-03-24T05:33:21;98748.47;;;8.45;59.56
63343;BME280;49465;57.664;39.686;2023-03-24T05:35:47;98748.19;;;8.48;59.92
63343;BME280;49465;57.664;39.686;2023-03-24T05:38:20;98749.47;;;8.65;59.21
63343;BME280;49465;57.664;39.686;2023-03-24T05:40:59;98750.47;;;8.53;59.03
63343;BME280;49465;57.664;39.686;2023-03-24T05:43:31;98752.63;;;8.80;59.75
63343;BME280;49465;57.664;39.686;2023-03-24T05:46:00;98750.63;;;8.73;59.94
63343;BME280;49465;57.664;39.686;2023-03-24T05:48:30;98748.72;;;8.75;59.82
63343;BME280;49465;57.664;39.686;2023-03-24T05:50:59;98745.13;;;8.76;60.35
63343;BME280;49465;57.664;39.686;2023-03-24T05:53:30;98752.03;;;8.77;60.04
63343;BME280;49465;57.664;39.686;2023-03-24T05:56:00;98748.22;;;8.81;60.36
63343;BME280;49465;57.664;39.686;2023-03-24T05:58:31;98749.94;;;8.91;60.46
63343;BME280;49465;57.664;39.686;2023-03-24T06:01:08;98748.09;;;9.03;59.85
63343;BME280;49465;57.664;39.686;2023-03-24T06:03:38;98751.84;;;8.89;60.13
63343;BME280;49465;57.664;39.686;2023-03-24T06:06:06;98749.84;;;8.82;59.88
63343;BME280;49465;57.664;39.686;2023-03-24T06:08:37;98750.84;;;8.81;59.93
63343;BME280;49465;57.664;39.686;2023-03-24T06:11:08;98744.47;;;8.95;60.12
63343;BME280;49465;57.664;39.686;2023-03-24T06:13:35;98742.59;;;8.85;59.74
63343;BME280;49465;57.664;39.686;2023-03-24T06:16:07;98741.34;;;9.01;60.26
63343;BME280;49465;57.664;39.686;2023-03-24T06:18:34;98735.34;;;8.89;60.29
63343;BME280;49465;57.664;39.686;2023-03-24T06:21:04;98742.75;;;9.05;60.50
63343;BME280;49465;57.664;39.686;2023-03-24T06:23:33;98741.66;;;9.07;60.04
63343;BME280;49465;57.664;39.686;2023-03-24T06:26:10;98731.59;;;9.24;60.06
63343;BME280;49465;57.664;39.686;2023-03-24T06:28:42;98739.56;;;9.01;60.46
63343;BME280;49465;57.664;39.686;2023-03-24T06:31:12;98735.19;;;9.02;59.79
63343;BME280;49465;57.664;39.686;2023-03-24T06:33:46;98740.97;;;9.05;60.30
63343;BME280;49465;57.664;39.686;2023-03-24T06:36:15;98739.69;;;9.21;60.00
63343;BME280;49465;57.664;39.686;2023-03-24T06:38:51;98743.13;;;9.42;59.85
63343;BME280;49465;57.664;39.686;2023-03-24T06:41:17;98737.00;;;9.11;59.78
63343;BME280;49465;57.664;39.686;2023-03-24T06:43:46;98742.75;;;9.26;60.09
63343;BME280;49465;57.664;39.686;2023-03-24T06:46:15;98748.75;;;9.17;59.53
63343;BME280;49465;57.664;39.686;2023-03-24T06:48:55;98749.97;;;9.55;60.39
63343;BME280;49465;57.664;39.686;2023-03-24T06:51:35;98747.25;;;9.35;59.73
63343;BME280;49465;57.664;39.686;2023-03-24T06:54:04;98745.50;;;9.24;58.68
63343;BME280;49465;57.664;39.686;2023-03-24T06:56:42;98748.63;;;9.39;59.62
63343;BME280;49465;57.664;39.686;2023-03-24T06:59:17;98745.88;;;9.41;59.28
63343;BME280;49465;57.664;39.686;2023-03-24T07:01:57;98738.47;;;9.46;59.88
63343;BME280;49465;57.664;39.686;2023-03-24T07:04:29;98740.16;;;9.47;59.59
63343;BME280;49465;57.664;39.686;2023-03-24T07:07:07;98732.47;;;9.34;59.54
63343;BME280;49465;57.664;39.686;2023-03-24T07:09:44;98745.91;;;9.50;60.03
63343;BME280;49465;57.664;39.686;2023-03-24T07:12:23;98746.50;;;9.54;59.25
63343;BME280;49465;57.664;39.686;2023-03-24T07:14:58;98749.03;;;9.65;59.58
63343;BME280;49465;57.664;39.686;2023-03-24T07:17:33;98750.38;;;9.60;59.18
63343;BME280;49465;57.664;39.686;2023-03-24T07:20:08;98746.94;;;9.59;59.29
63343;BME280;49465;57.664;39.686;2023-03-24T07:22:43;98742.38;;;9.82;59.62
63343;BME280;49465;57.664;39.686;2023-03-24T07:25:16;98736.53;;;9.69;59.35
63343;BME280;49465;57.664;39.686;2023-03-24T07:27:59;98735.31;;;9.73;59.85
63343;BME280;49465;57.664;39.686;2023-03-24T07:30:35;98730.34;;;9.80;60.02
63343;BME280;49465;57.664;39.686;2023-03-24T07:33:09;98732.59;;;9.84;60.65
63343;BME280;49465;57.664;39.686;2023-03-24T07:35:56;98734.03;;;9.98;60.17
63343;BME280;49465;57.664;39.686;2023-03-24T07:38:36;98734.97;;;9.97;60.09
63343;BME280;49465;57.664;39.686;2023-03-24T07:41:08;98731.81;;;10.03;59.90
63343;BME280;49465;57.664;39.686;2023-03-24T07:43:40;98731.78;;;9.94;60.06
63343;BME280;49465;57.664;39.686;2023-03-24T07:46:18;98726.69;;;10.33;59.96
63343;BME280;49465;57.664;39.686;2023-03-24T07:48:59;98726.94;;;10.29;59.86
63343;BME280;49465;57.664;39.686;2023-03-24T07:51:27;98730.50;;;10.19;58.99
63343;BME280;49465;57.664;39.686;2023-03-24T07:54:07;98727.25;;;10.36;59.39
63343;BME280;49465;57.664;39.686;2023-03-24T07:56:39;98732.50;;;10.46;59.10
63343;BME280;49465;57.664;39.686;2023-03-24T07:59:09;98731.13;;;10.52;58.99
63343;BME280;49465;57.664;39.686;2023-03-24T08:01:45;98729.34;;;10.62;58.69
63343;BME280;49465;57.664;39.686;2023-03-24T08:04:17;98727.28;;;10.65;59.18
63343;BME280;49465;57.664;39.686;2023-03-24T08:06:49;98726.72;;;10.72;58.96
63343;BME280;49465;57.664;39.686;2023-03-24T08:09:22;98723.16;;;10.63;58.37
63343;BME280;49465;57.664;39.686;2023-03-24T08:12:02;98719.56;;;10.83;57.78
63343;BME280;49465;57.664;39.686;2023-03-24T08:14:37;98722.72;;;10.87;58.13
63343;BME280;49465;57.664;39.686;2023-03-24T08:17:12;98714.31;;;10.93;57.95
63343;BME280;49465;57.664;39.686;2023-03-24T08:19:47;98726.84;;;10.99;57.77
63343;BME280;49465;57.664;39.686;2023-03-24T08:22:19;98722.59;;;10.88;57.20
63343;BME280;49465;57.664;39.686;2023-03-24T08:24:57;98715.66;;;11.07;57.79
63343;BME280;49465;57.664;39.686;2023-03-24T08:27:33;98721.47;;;11.11;58.19
63343;BME280;49465;57.664;39.686;2023-03-24T08:30:13;98719.06;;;11.27;57.33
63343;BME280;49465;57.664;39.686;2023-03-24T08:32:48;98720.34;;;11.23;56.96
63343;BME280;49465;57.664;39.686;2023-03-24T08:35:36;98724.47;;;11.35;56.75
63343;BME280;49465;57.664;39.686;2023-03-24T08:38:09;98724.19;;;11.28;57.35
63343;BME280;49465;57.664;39.686;2023-03-24T08:40:46;98723.38;;;11.28;57.61
63343;BME280;49465;57.664;39.686;2023-03-24T08:43:27;98727.50;;;11.31;57.36
63343;BME280;49465;57.664;39.686;2023-03-24T08:45:57;98721.84;;;11.35;57.26
63343;BME280;49465;57.664;39.686;2023-03-24T08:48:32;98725.56;;;11.23;57.49
63343;BME280;49465;57.664;39.686;2023-03-24T08:51:14;98725.78;;;11.59;57.37
63343;BME280;49465;57.664;39.686;2023-03-24T08:53:47;98725.72;;;11.41;57.15
63343;BME280;49465;57.664;39.686;2023-03-24T08:56:27;98723.59;;;11.44;57.50
63343;BME280;49465;57.664;39.686;2023-03-24T08:59:01;98730.50;;;11.45;57.54
63343;BME280;49465;57.664;39.686;2023-03-24T09:01:35;98725.69;;;11.51;57.27
63343;BME280;49465;57.664;39.686;2023-03-24T09:04:12;98724.00;;;11.50;57.46
63343;BME280;49465;57.664;39.686;2023-03-24T09:06:46;98716.78;;;11.61;57.66
63343;BME280;49465;57.664;39.686;2023-03-24T09:09:14;98720.03;;;11.45;57.22
63343;BME280;49465;57.664;39.686;2023-03-24T09:11:44;98718.59;;;11.61;57.33
63343;BME280;49465;57.664;39.686;2023-03-24T09:14:23;98714.41;;;11.68;56.90
63343;BME280;49465;57.664;39.686;2023-03-24T09:17:04;98717.72;;;11.70;57.05
63343;BME280;49465;57.664;39.686;2023-03-24T09:19:42;98721.88;;;11.73;57.03
63343;BME280;49465;57.664;39.686;2023-03-24T09:22:16;98711.91;;;11.76;57.17
63343;BME280;49465;57.664;39.686;2023-03-24T09:24:47;98710.66;;;11.80;57.17
63343;BME280;49465;57.664;39.686;2023-03-24T09:27:22;98717.41;;;11.83;57.13
63343;BME280;49465;57.664;39.686;2023-03-24T09:29:57;98723.19;;;11.86;57.18
63343;BME280;49465;57.664;39.686;2023-03-24T09:32:30;98720.28;;;11.90;56.52
63343;BME280;49465;57.664;39.686;2023-03-24T09:35:08;98719.72;;;11.96;56.48
63343;BME280;49465;57.664;39.686;2023-03-24T09:37:51;98725.34;;;12.01;56.39
63343;BME280;49465;57.664;39.686;2023-03-24T09:40:27;98725.97;;;12.13;56.60
63343;BME280;49465;57.664;39.686;2023-03-24T09:43:06;98723.91;;;12.16;56.10
63343;BME280;49465;57.664;39.686;2023-03-24T09:45:53;98722.16;;;12.25;56.07
63343;BME280;49465;57.664;39.686;2023-03-24T09:51:33;98716.66;;;12.46;54.62
63343;BME280;49465;57.664;39.686;2023-03-24T09:56:57;98728.19;;;12.17;55.95
63343;BME280;49465;57.664;39.686;2023-03-24T09:59:38;98718.00;;;12.32;55.43
63343;BME280;49465;57.664;39.686;2023-03-24T10:02:17;98717.84;;;12.34;55.51
63343;BME280;49465;57.664;39.686;2023-03-24T10:04:49;98720.59;;;12.14;55.87
63343;BME280;49465;57.664;39.686;2023-03-24T10:08:09;98718.41;;;12.55;54.68
63343;BME280;49465;57.664;39.686;2023-03-24T10:10:54;98725.59;;;12.53;54.61
63343;BME280;49465;57.664;39.686;2023-03-24T10:19:39;98726.28;;;12.55;54.27
63343;BME280;49465;57.664;39.686;2023-03-24T10:22:36;98729.13;;;12.44;54.88
63343;BME280;49465;57.664;39.686;2023-03-24T10:25:15;98728.56;;;12.22;55.82
63343;BME280;49465;57.664;39.686;2023-03-24T10:28:00;98726.41;;;12.36;55.72
63343;BME280;49465;57.664;39.686;2023-03-24T10:30:40;98721.66;;;12.21;56.57
63343;BME280;49465;57.664;39.686;2023-03-24T10:33:19;98735.41;;;12.15;56.49
63343;BME280;49465;57.664;39.686;2023-03-24T10:36:20;98727.91;;;12.56;54.80
63343;BME280;49465;57.664;39.686;2023-03-24T10:38:54;98733.91;;;12.03;56.37
63343;BME280;49465;57.664;39.686;2023-03-24T10:41:27;98730.22;;;12.23;55.90
63343;BME280;49465;57.664;39.686;2023-03-24T10:44:08;98734.19;;;12.10;56.19
63343;BME280;49465;57.664;39.686;2023-03-24T10:46:48;98739.94;;;12.13;56.24
63343;BME280;49465;57.664;39.686;2023-03-24T10:49:28;98741.59;;;12.14;56.65
63343;BME280;49465;57.664;39.686;2023-03-24T10:52:12;98739.56;;;12.36;55.53
63343;BME280;49465;57.664;39.686;2023-03-24T10:55:03;98739.84;;;12.33;55.67
63343;BME280;49465;57.664;39.686;2023-03-24T10:57:36;98734.50;;;11.97;56.44
63343;BME280;49465;57.664;39.686;2023-03-24T11:03:00;98733.38;;;12.27;56.27
63343;BME280;49465;57.664;39.686;2023-03-24T11:05:35;98731.25;;;12.13;56.11
63343;BME280;49465;57.664;39.686;2023-03-24T11:08:26;98732.75;;;12.43;55.21
63343;BME280;49465;57.664;39.686;2023-03-24T11:10:57;98726.94;;;11.94;56.35
63343;BME280;49465;57.664;39.686;2023-03-24T11:13:42;98738.38;;;12.20;55.78
63343;BME280;49465;57.664;39.686;2023-03-24T11:16:30;98738.44;;;12.11;56.56
63343;BME280;49465;57.664;39.686;2023-03-24T11:18:59;98738.25;;;11.94;56.93
63343;BME280;49465;57.664;39.686;2023-03-24T11:21:34;98744.16;;;12.06;56.43
63343;BME280;49465;57.664;39.686;2023-03-24T11:24:12;98747.94;;;12.21;56.51
63343;BME280;49465;57.664;39.686;2023-03-24T11:29:19;98751.06;;;11.97;56.44
63343;BME280;49465;57.664;39.686;2023-03-24T11:32:01;98747.81;;;12.13;57.22
63343;BME280;49465;57.664;39.686;2023-03-24T11:34:33;98749.13;;;11.99;56.87
63343;BME280;49465;57.664;39.686;2023-03-24T11:37:17;98748.22;;;12.18;56.30
63343;BME280;49465;57.664;39.686;2023-03-24T11:42:59;98746.91;;;12.32;55.34
63343;BME280;49465;57.664;39.686;2023-03-24T11:45:36;98750.84;;;11.91;56.83
63343;BME280;49465;57.664;39.686;2023-03-24T11:48:46;98750.78;;;12.28;55.44
63343;BME280;49465;57.664;39.686;2023-03-24T11:51:35;98757.88;;;12.27;55.62
63343;BME280;49465;57.664;39.686;2023-03-24T11:54:11;98761.72;;;12.05;56.24
63343;BME280;49465;57.664;39.686;2023-03-24T11:57:11;98768.75;;;12.33;55.29
63343;BME280;49465;57.664;39.686;2023-03-24T12:13:44;98767.66;;;12.07;56.63
63343;BME280;49465;57.664;39.686;2023-03-24T12:19:30;98773.13;;;12.14;56.00
63343;BME280;49465;57.664;39.686;2023-03-24T12:44:22;98798.63;;;12.04;55.72
63343;BME280;49465;57.664;39.686;2023-03-24T12:52:33;98791.69;;;12.58;52.52
63343;BME280;49465;57.664;39.686;2023-03-24T13:00:29;98805.34;;;11.69;56.92
63343;BME280;49465;57.664;39.686;2023-03-24T13:03:01;98799.81;;;11.72;56.48
63343;BME280;49465;57.664;39.686;2023-03-24T13:05:51;98803.38;;;11.81;55.94
63343;BME280;49465;57.664;39.686;2023-03-24T13:08:21;98800.78;;;12.46;52.81
63343;BME280;49465;57.664;39.686;2023-03-24T13:11:14;98802.53;;;12.00;54.91
63343;BME280;49465;57.664;39.686;2023-03-24T13:13:47;98803.16;;;11.55;55.99
63343;BME280;49465;57.664;39.686;2023-03-24T13:16:23;98807.13;;;11.78;56.18
63343;BME280;49465;57.664;39.686;2023-03-24T13:18:56;98801.22;;;11.66;56.35
63343;BME280;49465;57.664;39.686;2023-03-24T13:21:31;98796.22;;;11.63;56.51
63343;BME280;49465;57.664;39.686;2023-03-24T13:24:09;98801.19;;;11.76;55.88
63343;BME280;49465;57.664;39.686;2023-03-24T13:29:49;98803.78;;;11.86;55.52
63343;BME280;49465;57.664;39.686;2023-03-24T13:32:34;98802.75;;;11.50;57.01
63343;BME280;49465;57.664;39.686;2023-03-24T13:37:38;98809.66;;;11.51;56.05
63343;BME280;49465;57.664;39.686;2023-03-24T13:40:26;98808.91;;;11.68;55.70
63343;BME280;49465;57.664;39.686;2023-03-24T13:43:10;98813.91;;;11.61;56.19
63343;BME280;49465;57.664;39.686;2023-03-24T13:45:46;98824.16;;;11.64;55.58
63343;BME280;49465;57.664;39.686;2023-03-24T13:48:17;98821.41;;;11.37;55.85
63343;BME280;49465;57.664;39.686;2023-03-24T13:50:58;98821.66;;;11.63;56.15
63343;BME280;49465;57.664;39.686;2023-03-24T13:53:34;98823.47;;;11.53;56.02
63343;BME280;49465;57.664;39.686;2023-03-24T13:56:06;98827.06;;;11.42;55.95
63343;BME280;49465;57.664;39.686;2023-03-24T13:59:04;98830.00;;;11.39;56.06
63343;BME280;49465;57.664;39.686;2023-03-24T14:01:46;98821.66;;;11.53;55.49
63343;BME280;49465;57.664;39.686;2023-03-24T14:10:48;98823.84;;;11.67;55.60
63343;BME280;49465;57.664;39.686;2023-03-24T14:13:20;98823.06;;;11.47;56.02
63343;BME280;49465;57.664;39.686;2023-03-24T14:15:58;98819.44;;;11.58;56.07
63343;BME280;49465;57.664;39.686;2023-03-24T14:21:02;98828.31;;;11.47;56.40
63343;BME280;49465;57.664;39.686;2023-03-24T14:23:48;98827.97;;;11.90;55.72
63343;BME280;49465;57.664;39.686;2023-03-24T14:28:54;98840.41;;;11.68;56.24
63343;BME280;49465;57.664;39.686;2023-03-24T14:31:34;98847.31;;;11.88;55.91
63343;BME280;49465;57.664;39.686;2023-03-24T14:34:14;98851.59;;;11.90;55.87
63343;BME280;49465;57.664;39.686;2023-03-24T14:36:56;98849.03;;;11.60;55.55
63343;BME280;49465;57.664;39.686;2023-03-24T14:44:51;98859.53;;;11.60;55.65
63343;BME280;49465;57.664;39.686;2023-03-24T14:47:41;98828.91;;;11.88;54.71
63343;BME280;49465;57.664;39.686;2023-03-24T14:50:21;98857.53;;;11.92;55.03
63343;BME280;49465;57.664;39.686;2023-03-24T14:53:01;98858.53;;;11.91;55.05
63343;BME280;49465;57.664;39.686;2023-03-24T14:55:30;98859.78;;;11.67;56.03
63343;BME280;49465;57.664;39.686;2023-03-24T15:00:57;98862.41;;;11.67;56.61
63343;BME280;49465;57.664;39.686;2023-03-24T15:03:56;98868.91;;;11.92;55.53
63343;BME280;49465;57.664;39.686;2023-03-24T15:06:25;98859.09;;;11.55;56.04
63343;BME280;49465;57.664;39.686;2023-03-24T15:09:18;98863.34;;;11.95;55.07
63343;BME280;49465;57.664;39.686;2023-03-24T15:11:53;98866.16;;;11.64;56.19
63343;BME280;49465;57.664;39.686;2023-03-24T15:14:26;98871.53;;;11.63;56.28
63343;BME280;49465;57.664;39.686;2023-03-24T15:17:22;98871.50;;;12.02;54.55
63343;BME280;49465;57.664;39.686;2023-03-24T15:19:53;98869.03;;;11.61;55.91
63343;BME280;49465;57.664;39.686;2023-03-24T15:22:20;98874.72;;;11.37;56.10
63343;BME280;49465;57.664;39.686;2023-03-24T15:24:51;98881.50;;;11.50;56.19
63343;BME280;49465;57.664;39.686;2023-03-24T15:27:25;98876.94;;;11.42;55.97
63343;BME280;49465;57.664;39.686;2023-03-24T15:30:05;98882.72;;;11.45;55.66
63343;BME280;49465;57.664;39.686;2023-03-24T15:32:39;98888.78;;;11.26;56.22
63343;BME280;49465;57.664;39.686;2023-03-24T15:35:39;98892.22;;;11.85;54.54
63343;BME280;49465;57.664;39.686;2023-03-24T15:38:18;98896.41;;;11.59;55.50
63343;BME280;49465;57.664;39.686;2023-03-24T15:41:05;98892.94;;;11.58;55.84
63343;BME280;49465;57.664;39.686;2023-03-24T15:43:49;98897.22;;;11.50;56.05
63343;BME280;49465;57.664;39.686;2023-03-24T15:46:26;98905.66;;;11.53;55.59
63343;BME280;49465;57.664;39.686;2023-03-24T15:48:58;98899.31;;;11.46;56.46
63343;BME280;49465;57.664;39.686;2023-03-24T15:52:35;98902.22;;;11.72;55.71
63343;BME280;49465;57.664;39.686;2023-03-24T15:54:46;98911.03;;;11.22;56.20
63343;BME280;49465;57.664;39.686;2023-03-24T15:57:25;98908.97;;;11.45;56.14
63343;BME280;49465;57.664;39.686;2023-03-24T16:02:55;98921.00;;;11.48;56.32
63343;BME280;49465;57.664;39.686;2023-03-24T16:05:37;98936.16;;;11.35;56.88
63343;BME280;49465;57.664;39.686;2023-03-24T16:08:32;98937.97;;;11.44;56.29
63343;BME280;49465;57.664;39.686;2023-03-24T16:11:09;98936.34;;;11.33;56.92